Time;durP1;ratioP1;P1;durP2;ratioP2;P2;SDS_P1;SDS_P2;PMS_P1;PMS_P2;Temp;Humidity;BMP_temperature;BMP_pressure;BME280_temperature;BME280_humidity;BME280_pressure;Samples;Min_cycle;Max_cycle;Signal;HPM_P1;HPM_P2
2023/01/16 00:02:04;;;;;;;2.05;1.10;;;4.80;66.50;;;-0.18;93.07;94590.59;4947048;28;20375;-60
2023/01/16 00:04:35;;;;;;;3.28;1.02;;;4.80;66.70;;;-0.21;93.93;94577.97;4953337;28;20110;-60
2023/01/16 00:07:04;;;;;;;2.60;1.08;;;4.70;66.60;;;-0.27;94.05;94568.38;4945965;28;20030;-60
2023/01/16 00:09:32;;;;;;;0.90;0.77;;;4.70;66.60;;;-0.33;93.99;94556.97;4934666;28;20114;-58
2023/01/16 00:12:00;;;;;;;1.00;0.80;;;4.70;66.50;;;-0.42;94.66;94552.25;4935933;28;20437;-59
2023/01/16 00:14:32;;;;;;;2.13;1.13;;;4.60;66.50;;;-0.43;94.91;94553.28;4928933;28;20443;-60
2023/01/16 00:17:05;;;;;;;1.20;0.90;;;4.60;66.60;;;-0.48;95.40;94546.88;4952706;28;20065;-57
2023/01/16 00:19:31;;;;;;;1.65;1.00;;;4.50;66.60;;;-0.51;95.43;94551.75;4934812;28;20394;-59
2023/01/16 00:21:59;;;;;;;1.23;0.95;;;4.50;66.70;;;-0.52;95.83;94544.94;4953151;28;20026;-59
2023/01/16 00:24:35;;;;;;;2.70;1.20;;;4.50;66.80;;;-0.55;96.31;94538.34;4920004;28;20374;-57
2023/01/16 00:27:04;;;;;;;1.75;1.08;;;4.40;66.80;;;-0.56;96.06;94530.72;4952024;28;20058;-60
2023/01/16 00:29:32;;;;;;;1.60;1.02;;;4.40;67.00;;;-0.57;96.27;94522.03;4935469;28;20031;-60
2023/01/16 00:31:58;;;;;;;1.08;0.98;;;4.40;67.00;;;-0.61;96.28;94520.91;4932025;29;20026;-59
2023/01/16 00:34:30;;;;;;;1.27;0.73;;;4.40;67.00;;;-0.65;96.33;94518.97;4953328;28;20046;-60
2023/01/16 00:36:55;;;;;;;2.10;1.17;;;4.30;67.00;;;-0.71;96.67;94513.56;4935262;28;20468;-60
2023/01/16 00:39:24;;;;;;;2.80;1.10;;;4.30;67.00;;;-0.80;97.66;94512.28;4951674;28;20038;-60
2023/01/16 00:41:50;;;;;;;1.83;1.00;;;4.20;66.90;;;-0.83;97.43;94507.50;4935750;28;20025;-59
2023/01/16 00:44:16;;;;;;;1.85;1.13;;;4.20;66.90;;;-0.89;97.28;94504.97;4918843;28;20031;-59
2023/01/16 00:46:59;;;;;;;2.15;1.30;;;4.20;66.90;;;-0.97;97.37;94493.00;4933272;28;20029;-59
2023/01/16 00:49:25;;;;;;;1.17;0.90;;;4.10;66.80;;;-1.04;97.87;94489.63;4943507;28;20026;-60
2023/01/16 00:51:59;;;;;;;3.67;1.40;;;4.00;66.80;;;-1.11;98.74;94479.25;4947629;28;20390;-59
2023/01/16 00:54:25;;;;;;;1.60;1.00;;;4.00;66.90;;;-1.14;98.98;94471.06;4917538;29;20430;-59
2023/01/16 00:56:52;;;;;;;1.63;1.15;;;4.00;67.00;;;-1.20;98.71;94465.69;4940715;28;20077;-58
2023/01/16 00:59:22;;;;;;;1.92;1.20;;;3.90;67.00;;;-1.25;98.97;94457.72;4932850;29;20035;-60
2023/01/16 01:01:48;;;;;;;6.80;1.40;;;3.80;67.00;;;-1.30;99.89;94451.53;4930636;29;20027;-60
2023/01/16 01:04:17;;;;;;;2.17;1.27;;;3.80;67.10;;;-1.33;100.00;94437.09;4932128;29;20034;-60
2023/01/16 01:06:43;;;;;;;1.80;1.33;;;3.80;67.30;;;-1.35;100.00;94435.72;4923721;29;20023;-58
2023/01/16 01:09:09;;;;;;;1.65;1.38;;;3.70;67.30;;;-1.38;100.00;94446.59;4915877;29;20030;-61
2023/01/16 01:11:38;;;;;;;1.33;1.10;;;3.70;68.20;;;-1.42;100.00;94448.84;4931775;29;20745;-60
2023/01/16 01:14:04;;;;;;;1.75;1.20;;;3.70;67.60;;;-1.44;100.00;94443.84;4922172;29;20082;-60
2023/01/16 01:16:33;;;;;;;2.30;1.38;;;3.60;67.50;;;-1.49;100.00;94435.06;4937773;28;20404;-60
2023/01/16 01:19:05;;;;;;;1.70;1.17;;;3.60;67.60;;;-1.54;100.00;94432.28;4916916;29;20039;-60
2023/01/16 01:21:37;;;;;;;4.57;1.20;;;3.60;67.50;;;-1.58;100.00;94433.75;4930789;29;20019;-58
2023/01/16 01:24:06;;;;;;;3.85;1.45;;;3.50;67.50;;;-1.61;100.00;94427.16;4926505;29;20046;-60
2023/01/16 01:26:32;;;;;;;1.65;1.20;;;3.50;67.50;;;-1.67;100.00;94420.19;4907989;29;20478;-59
2023/01/16 01:29:02;;;;;;;2.22;1.27;;;3.50;67.50;;;-1.74;100.00;94416.84;4915385;29;20042;-59
2023/01/16 01:31:28;;;;;;;1.90;1.35;;;3.40;67.50;;;-1.83;100.00;94413.72;4932511;29;20045;-60
2023/01/16 01:33:54;;;;;;;1.83;1.10;;;3.30;67.50;;;-1.87;100.00;94410.72;4915014;29;20027;-59
2023/01/16 01:36:19;;;;;;;5.60;1.73;;;3.30;67.60;;;-1.87;100.00;94399.50;4931476;29;20113;-59
2023/01/16 01:38:46;;;;;;;5.22;1.63;;;3.20;67.60;;;-1.89;100.00;94393.69;4945994;28;20074;-61
2023/01/16 01:41:18;;;;;;;2.90;1.60;;;3.20;67.70;;;-1.92;100.00;94394.13;4932858;29;20109;-60
2023/01/16 01:43:54;;;;;;;3.30;1.80;;;3.20;67.80;;;-1.90;100.00;94386.88;4918260;29;20018;-61
2023/01/16 01:46:46;;;;;;;2.05;1.30;;;3.20;68.00;;;-1.88;100.00;94382.22;4929993;29;20023;-61
2023/01/16 01:49:30;;;;;;;2.45;1.80;;;3.20;68.10;;;-1.92;100.00;94383.69;4923924;29;20506;-61
2023/01/16 01:52:07;;;;;;;2.72;1.58;;;3.10;68.10;;;-1.92;100.00;94376.63;4904037;29;20054;-61
2023/01/16 01:54:46;;;;;;;2.33;1.40;;;3.10;68.90;;;-1.93;100.00;94363.81;4913420;29;20023;-61
2023/01/16 01:57:52;;;;;;;2.17;1.70;;;3.10;68.20;;;-1.96;100.00;94359.03;4926814;29;20051;-61
2023/01/16 02:00:26;;;;;;;2.78;1.80;;;3.10;68.20;;;-1.98;100.00;94332.34;4916280;29;20514;-61
2023/01/16 02:03:10;;;;;;;2.15;1.65;;;3.10;68.20;;;-2.03;100.00;94342.66;4908683;29;20035;-61
2023/01/16 02:05:49;;;;;;;1.98;1.60;;;3.00;68.30;;;-2.02;100.00;94321.53;4911296;29;20131;-60
2023/01/16 02:08:20;;;;;;;2.08;1.60;;;3.00;68.40;;;-2.02;100.00;94320.75;4912333;29;20106;-60
2023/01/16 02:11:25;;;;;;;2.38;1.42;;;3.00;68.40;;;-2.04;100.00;94297.47;4895499;29;20078;-61
2023/01/16 02:14:09;;;;;;;1.88;1.48;;;3.00;68.40;;;-2.05;100.00;94292.47;4916134;29;20051;-60
2023/01/16 02:20:11;;;;;;;2.05;1.48;;;3.00;68.50;;;-2.10;100.00;94272.22;4910339;29;20110;-61
2023/01/16 02:23:19;;;;;;;3.17;1.40;;;3.00;68.60;;;-2.13;100.00;94263.06;4882614;29;20035;-61
2023/01/16 02:26:25;;;;;;;2.03;1.40;;;2.90;68.50;;;-2.11;100.00;94247.16;4918014;29;20062;-61
2023/01/16 02:29:19;;;;;;;3.45;1.88;;;2.90;68.50;;;-2.10;100.00;94241.75;4918787;29;20027;-58
2023/01/16 02:32:38;;;;;;;3.03;1.60;;;2.90;68.70;;;-2.06;100.00;94233.47;4914897;29;20039;-58
2023/01/16 02:35:24;;;;;;;2.38;1.30;;;2.90;68.80;;;-2.00;100.00;94230.00;4930003;29;20019;-59
2023/01/16 02:38:03;;;;;;;1.65;1.20;;;2.90;69.00;;;-1.98;100.00;94220.91;4909676;29;20036;-57
2023/01/16 02:41:22;;;;;;;1.95;1.08;;;3.00;69.10;;;-1.90;100.00;94218.00;4932868;29;20031;-61
2023/01/16 02:45:23;;;;;;;1.20;1.10;;;3.00;69.30;;;-1.81;100.00;94207.28;4917121;29;20295;-60
2023/01/16 02:48:39;;;;;;;1.10;0.95;;;3.10;69.30;;;-1.81;100.00;94184.56;4900701;29;20039;-59
2023/01/16 02:51:41;;;;;;;0.95;0.80;;;3.10;69.20;;;-1.83;100.00;94176.16;4940143;28;20065;-60
2023/01/16 02:54:35;;;;;;;1.55;0.90;;;3.20;69.10;;;-1.89;100.00;94159.56;4946565;28;20615;-60
2023/01/16 02:57:34;;;;;;;0.90;0.80;;;3.10;68.80;;;-1.94;100.00;94154.22;4950051;28;20306;-58
2023/01/16 03:00:00;;;;;;;0.93;0.80;;;3.10;68.80;;;-1.94;100.00;94145.59;4935562;28;20141;-57
2023/01/16 03:02:29;;;;;;;0.85;0.70;;;3.10;68.70;;;-1.95;100.00;94128.31;4928050;28;20077;-54
2023/01/16 03:05:10;;;;;;;4.10;0.70;;;3.10;68.60;;;-1.97;100.00;94120.72;4939335;28;20027;-57
2023/01/16 03:08:29;;;;;;;0.60;0.60;;;3.10;68.70;;;-1.94;100.00;94109.84;4938622;28;20038;-58
2023/01/16 03:11:23;;;;;;;0.90;0.60;;;3.10;68.90;;;-1.93;100.00;94108.81;4953539;28;20022;-57
2023/01/16 03:14:14;;;;;;;2.97;0.70;;;3.10;68.90;;;-1.92;100.00;94105.19;4954512;28;20030;-57
2023/01/16 03:17:17;;;;;;;4.03;0.70;;;3.10;68.80;;;-1.88;100.00;94095.09;4944770;28;20106;-59
2023/01/16 03:20:51;;;;;;;2.17;0.80;;;3.10;68.90;;;-1.89;100.00;94088.28;4938369;28;20047;-56
2023/01/16 03:23:42;;;;;;;;;;;3.10;68.80;;;-1.95;100.00;94078.75;4947037;28;20448;-54
2023/01/16 03:26:29;;;;;;;1.33;0.60;;;3.10;68.60;;;-1.96;100.00;94069.31;4955117;28;19909;-57
2023/01/16 03:29:27;;;;;;;1.45;0.80;;;3.10;69.40;;;-1.94;100.00;94064.69;4955043;28;20033;-55
2023/01/16 03:32:42;;;;;;;1.15;0.80;;;3.10;68.60;;;-1.94;100.00;94043.81;4947266;28;20481;-58
2023/01/16 03:35:52;;;;;;;0.80;0.80;;;3.10;68.60;;;-1.97;100.00;94042.44;4953458;28;20022;-57
2023/01/16 03:38:26;;;;;;;0.70;0.70;;;3.10;68.60;;;-2.00;100.00;94029.84;4935598;28;20493;-55
2023/01/16 03:41:00;;;;;;;2.05;0.82;;;3.00;68.50;;;-2.04;100.00;94023.47;4940526;28;20063;-56
2023/01/16 03:43:54;;;;;;;3.00;0.90;;;3.10;68.40;;;-2.14;100.00;94013.56;4951448;28;20031;-55
2023/01/16 03:46:37;;;;;;;1.77;1.00;;;3.00;68.30;;;-2.20;100.00;94004.03;4951823;28;20041;-58
2023/01/16 03:49:30;;;;;;;2.03;0.95;;;3.00;68.20;;;-2.24;100.00;93997.66;4935965;28;20674;-59
2023/01/16 03:52:04;;;;;;;0.82;0.70;;;2.90;68.20;;;-2.28;100.00;94014.81;4916115;29;20577;-58
2023/01/16 03:55:12;;;;;;;2.00;1.02;;;2.90;68.20;;;-2.28;100.00;93996.53;4920460;29;20027;-58
2023/01/16 03:57:57;;;;;;;1.88;1.00;;;2.80;68.40;;;-2.26;100.00;93978.84;4916943;29;20471;-59
2023/01/16 04:01:15;;;;;;;1.67;1.13;;;2.80;68.60;;;-2.30;100.00;93977.69;4946254;28;20039;-57
2023/01/16 04:04:08;;;;;;;2.42;1.00;;;2.80;68.40;;;-2.35;100.00;93965.34;4928277;29;20041;-57
2023/01/16 04:07:11;;;;;;;0.85;0.80;;;2.70;68.40;;;-2.43;100.00;93950.00;4936667;28;20027;-55
2023/01/16 04:10:07;;;;;;;1.45;0.90;;;2.70;68.30;;;-2.47;100.00;93950.69;4930811;28;20031;-54
2023/01/16 04:13:04;;;;;;;1.15;0.82;;;2.60;68.30;;;-2.49;100.00;93924.03;4919518;28;20035;-55
2023/01/16 04:15:35;;;;;;;3.05;1.00;;;2.60;68.30;;;-2.51;100.00;93918.22;4927152;29;20080;-52
2023/01/16 04:18:01;;;;;;;1.20;0.80;;;2.60;68.40;;;-2.53;100.00;93915.06;4946492;28;20089;-53
2023/01/16 04:20:32;;;;;;;0.88;0.70;;;2.60;68.40;;;-2.54;100.00;93903.81;4943992;28;20486;-52
2023/01/16 04:22:58;;;;;;;2.25;1.00;;;2.50;68.40;;;-2.57;100.00;93899.06;4943800;28;20055;-55
2023/01/16 04:25:24;;;;;;;1.42;0.70;;;2.50;68.40;;;-2.61;100.00;93897.94;4912444;29;20506;-55
2023/01/16 04:27:50;;;;;;;1.60;0.90;;;2.50;68.40;;;-2.67;100.00;93877.97;4929509;28;20042;-53
2023/01/16 04:30:16;;;;;;;2.47;0.95;;;2.50;68.40;;;-2.70;100.00;93876.59;4942734;28;20038;-54
2023/01/16 04:32:43;;;;;;;2.15;1.02;;;2.40;68.40;;;-2.70;100.00;93871.38;4939437;28;20078;-52
2023/01/16 04:35:10;;;;;;;0.95;0.80;;;2.40;68.40;;;-2.74;100.00;93861.63;4946740;28;20023;-51
2023/01/16 04:37:36;;;;;;;1.48;0.93;;;2.40;68.50;;;-2.71;100.00;93858.59;4929317;29;20193;-54
2023/01/16 04:40:02;;;;;;;1.75;0.70;;;2.40;68.70;;;-2.73;100.00;93848.38;4935262;28;20681;-53
2023/01/16 04:42:37;;;;;;;1.02;0.73;;;2.40;68.60;;;-2.74;100.00;93843.41;4932458;29;20050;-54
2023/01/16 04:45:04;;;;;;;2.45;0.77;;;2.40;68.70;;;-2.77;100.00;93839.41;4919425;29;20026;-54
2023/01/16 04:47:39;;;;;;;0.95;0.80;;;2.40;68.70;;;-2.82;100.00;93829.69;4920581;29;20024;-51
2023/01/16 04:50:07;;;;;;;0.68;0.60;;;2.30;68.80;;;-2.84;100.00;93823.88;4942493;28;20494;-51
2023/01/16 04:52:40;;;;;;;1.40;0.82;;;2.30;68.80;;;-2.88;100.00;93807.13;4931870;29;20031;-52
2023/01/16 04:55:10;;;;;;;1.95;0.80;;;2.30;68.80;;;-2.82;100.00;93795.81;4928096;28;20042;-54
2023/01/16 04:57:36;;;;;;;3.78;0.90;;;2.30;68.80;;;-2.82;100.00;93795.81;4944820;28;20576;-52
2023/01/16 05:00:07;;;;;;;0.75;0.68;;;2.30;68.90;;;-2.82;100.00;93781.94;4919464;29;20035;-56
2023/01/16 05:02:36;;;;;;;1.10;0.50;;;2.30;68.90;;;-2.78;100.00;93782.31;4929153;29;20065;-54
2023/01/16 05:05:03;;;;;;;1.13;0.70;;;2.30;69.00;;;-2.78;100.00;93780.50;4934663;28;20027;-52
2023/01/16 05:07:29;;;;;;;0.50;0.50;;;2.30;69.00;;;-2.73;100.00;93766.78;4930720;29;20019;-51
2023/01/16 05:09:55;;;;;;;0.50;0.50;;;2.30;69.10;;;-2.74;100.00;93757.38;4923678;29;20034;-53
2023/01/16 05:12:29;;;;;;;2.33;0.43;;;2.30;69.10;;;-2.73;100.00;93746.72;4920715;29;20038;-53
2023/01/16 05:14:55;;;;;;;1.95;0.50;;;2.30;69.10;;;-2.73;100.00;93740.72;4916798;29;20031;-53
2023/01/16 05:17:24;;;;;;;1.38;0.60;;;2.30;69.00;;;-2.76;100.00;93730.75;4927436;29;20601;-51
2023/01/16 05:19:53;;;;;;;1.42;0.68;;;2.30;68.90;;;-2.78;100.00;93715.34;4945372;28;20066;-52
2023/01/16 05:22:22;;;;;;;0.52;0.50;;;2.30;68.90;;;-2.84;100.00;93721.47;4928824;28;20479;-53
2023/01/16 05:25:00;;;;;;;0.60;0.60;;;2.30;68.80;;;-2.84;100.00;93711.84;4938019;28;20027;-53
2023/01/16 05:27:26;;;;;;;1.08;0.50;;;2.30;68.90;;;-2.87;100.00;93694.03;4930829;29;20026;-55
2023/01/16 05:29:54;;;;;;;3.58;0.63;;;2.30;68.80;;;-2.89;100.00;93685.66;4930090;29;20039;-54
2023/01/16 05:32:29;;;;;;;1.20;0.60;;;2.30;68.90;;;-2.95;100.00;93683.16;4930687;29;20119;-56
2023/01/16 05:35:01;;;;;;;0.75;0.57;;;2.30;68.90;;;-2.96;100.00;93679.78;4945522;28;20554;-52
2023/01/16 05:37:29;;;;;;;1.88;0.85;;;2.20;68.70;;;-2.94;100.00;93671.75;4934124;28;20553;-50
2023/01/16 05:39:59;;;;;;;1.40;0.77;;;2.20;68.80;;;-2.92;100.00;93661.88;4910290;29;20506;-53
2023/01/16 05:42:31;;;;;;;1.73;0.77;;;2.20;69.00;;;-2.96;100.00;93656.31;4930114;29;20027;-51
2023/01/16 05:45:04;;;;;;;1.00;0.70;;;2.20;69.00;;;-2.99;100.00;93646.34;4936027;28;20059;-50
2023/01/16 05:47:40;;;;;;;2.40;0.60;;;2.20;69.00;;;-2.99;100.00;93642.97;4921105;29;20368;-52
2023/01/16 05:50:07;;;;;;;0.60;0.50;;;2.20;69.00;;;-3.00;100.00;93649.19;4922870;29;20043;-52
2023/01/16 05:52:33;;;;;;;1.88;0.60;;;2.10;69.70;;;-2.92;100.00;93634.00;4908733;29;20445;-51
2023/01/16 05:54:59;;;;;;;0.85;0.60;;;2.20;69.10;;;-2.91;100.00;93625.19;4911873;29;20039;-52
2023/01/16 05:57:29;;;;;;;1.20;0.52;;;2.20;69.20;;;-2.93;100.00;93619.38;4894591;29;20491;-52
2023/01/16 06:00:06;;;;;;;1.08;0.77;;;2.20;69.00;;;-2.97;100.00;93613.06;4911525;29;20027;-50
2023/01/16 06:02:33;;;;;;;1.48;0.80;;;2.20;69.00;;;-2.99;100.00;93594.25;4909516;29;20034;-51
2023/01/16 06:04:59;;;;;;;1.55;1.02;;;2.20;69.00;;;-2.93;100.00;93590.72;4926071;29;20039;-48
2023/01/16 06:07:25;;;;;;;2.05;0.85;;;2.20;69.10;;;-2.89;100.00;93583.25;4910959;29;20027;-49
2023/01/16 06:09:57;;;;;;;0.95;0.73;;;2.20;69.10;;;-2.86;100.00;93575.75;4900442;29;20039;-49
2023/01/16 06:12:22;;;;;;;5.93;1.60;;;2.20;69.10;;;-2.86;100.00;93565.31;4910696;29;20015;-51
2023/01/16 06:14:48;;;;;;;2.83;1.85;;;2.30;69.10;;;-2.80;100.00;93548.78;4911129;29;20038;-48
2023/01/16 06:17:15;;;;;;;1.48;1.00;;;2.30;69.20;;;-2.75;100.00;93550.69;4908115;29;20457;-49
2023/01/16 06:19:45;;;;;;;1.50;0.88;;;2.30;69.20;;;-2.72;100.00;93541.63;4894351;29;20040;-50
2023/01/16 06:22:13;;;;;;;1.27;0.63;;;2.30;69.30;;;-2.69;100.00;93530.75;4894653;29;20027;-50
2023/01/16 06:24:39;;;;;;;1.00;0.75;;;2.40;69.30;;;-2.69;100.00;93505.47;4904246;29;20369;-50
2023/01/16 06:27:05;;;;;;;0.93;0.77;;;2.40;69.20;;;-2.63;100.00;93508.97;4889390;29;20092;-50
2023/01/16 06:29:31;;;;;;;2.35;0.50;;;2.50;69.20;;;-2.59;100.00;93492.59;4908282;29;20059;-49
2023/01/16 06:31:57;;;;;;;3.30;0.90;;;2.50;69.20;;;-2.55;100.00;93498.13;4878016;29;20111;-51
2023/01/16 06:34:25;;;;;;;1.58;0.90;;;2.50;69.10;;;-2.48;100.00;93501.38;4909777;29;20033;-51
2023/01/16 06:36:52;;;;;;;1.90;0.73;;;2.50;69.10;;;-2.43;100.00;93483.22;4891368;29;20038;-50
2023/01/16 06:39:17;;;;;;;1.23;0.60;;;2.60;69.10;;;-2.44;100.00;93457.41;4906566;29;20035;-49
2023/01/16 06:41:43;;;;;;;2.00;0.80;;;2.70;69.00;;;-2.44;100.00;93454.81;4904022;29;20026;-49
2023/01/16 06:44:12;;;;;;;1.70;0.80;;;2.60;68.90;;;-2.46;100.00;93464.66;4901202;29;20502;-50
2023/01/16 06:46:38;;;;;;;2.22;0.63;;;2.70;68.80;;;-2.47;99.63;93461.28;4907427;29;20118;-49
2023/01/16 06:49:04;;;;;;;1.08;0.80;;;2.70;68.70;;;-2.47;99.71;93465.69;4909470;29;20183;-50
2023/01/16 06:51:30;;;;;;;2.05;0.73;;;2.70;68.60;;;-2.51;99.48;93465.34;4888856;29;20044;-51
2023/01/16 06:53:58;;;;;;;1.83;0.90;;;2.70;68.60;;;-2.52;99.11;93460.38;4891383;29;20027;-50
2023/01/16 06:56:24;;;;;;;0.55;0.55;;;2.70;68.50;;;-2.59;99.33;93453.50;4920110;29;20023;-53
2023/01/16 06:58:52;;;;;;;1.67;0.68;;;2.70;68.40;;;-2.63;100.00;93439.38;4908779;29;20089;-56
2023/01/16 07:01:18;;;;;;;1.38;0.60;;;2.70;68.30;;;-2.68;100.00;93436.66;4893475;29;20055;-54
2023/01/16 07:03:43;;;;;;;5.63;3.72;;;2.60;68.30;;;-2.66;100.00;93437.22;4919228;29;20152;-52
2023/01/16 07:06:09;;;;;;;1.60;0.93;;;2.60;68.20;;;-2.69;100.00;93432.50;4901650;29;20028;-54
2023/01/16 07:08:35;;;;;;;1.50;0.98;;;2.50;68.20;;;-2.72;100.00;93430.34;4919505;29;20036;-51
2023/01/16 07:11:01;;;;;;;1.20;0.60;;;2.50;68.10;;;-2.77;100.00;93422.44;4925400;29;20404;-53
2023/01/16 07:13:28;;;;;;;2.25;0.70;;;2.50;68.20;;;-2.81;100.00;93427.31;4908621;29;20188;-47
2023/01/16 07:24:25;;;;;;;3.40;1.13;;;2.40;68.20;;;-2.92;100.00;93385.69;4923735;29;20527;-49
2023/01/16 07:27:02;;;;;;;1.50;1.10;;;2.30;69.10;;;-2.96;100.00;93380.16;4907456;29;20031;-50
2023/01/16 07:29:34;;;;;;;2.40;0.98;;;2.40;68.40;;;-2.92;100.00;93390.91;4926085;29;20023;-49
2023/01/16 07:32:03;;;;;;;1.15;0.73;;;2.40;68.40;;;-2.94;100.00;93387.75;4914921;29;20122;-49
2023/01/16 07:34:29;;;;;;;0.93;0.63;;;2.40;68.50;;;-2.88;100.00;93389.44;4910746;29;20035;-52
2023/01/16 07:36:55;;;;;;;1.88;0.82;;;2.40;68.50;;;-2.82;100.00;93389.28;4908635;29;20039;-50
2023/01/16 07:39:27;;;;;;;1.65;1.05;;;2.50;68.60;;;-2.78;100.00;93381.78;4913363;29;20027;-51
2023/01/16 07:42:07;;;;;;;1.58;0.98;;;2.50;68.60;;;-2.71;100.00;93369.38;4900678;29;20020;-49
2023/01/16 07:44:33;;;;;;;2.13;0.73;;;2.60;68.70;;;-2.69;100.00;93353.50;4898965;29;20106;-49
2023/01/16 07:47:00;;;;;;;1.10;0.70;;;2.60;68.60;;;-2.64;100.00;93338.72;4918811;29;20047;-50
2023/01/16 07:49:26;;;;;;;1.08;0.90;;;2.70;68.60;;;-2.59;100.00;93328.38;4927913;29;20031;-51
2023/01/16 07:51:55;;;;;;;3.78;0.90;;;2.70;68.50;;;-2.56;100.00;93306.25;4942832;28;20085;-52
2023/01/16 07:54:24;;;;;;;7.90;0.77;;;2.70;68.40;;;-2.58;100.00;93296.06;4949990;28;20030;-51
2023/01/16 07:56:52;;;;;;;0.98;0.77;;;2.80;68.40;;;-2.52;100.00;93291.72;4949677;28;20245;-50
2023/01/16 07:59:18;;;;;;;1.10;0.70;;;2.80;68.40;;;-2.49;100.00;93295.66;4935765;28;20038;-49
2023/01/16 08:01:50;;;;;;;2.63;1.20;;;2.90;68.50;;;-2.42;100.00;93298.88;4931698;28;20301;-49
2023/01/16 08:04:16;;;;;;;1.52;0.90;;;2.90;68.50;;;-2.37;100.00;93301.56;4950874;28;20664;-49
2023/01/16 08:06:44;;;;;;;2.78;1.00;;;3.00;68.60;;;-2.29;100.00;93306.38;4936416;28;20379;-53
2023/01/16 08:09:12;;;;;;;1.58;0.95;;;3.00;68.60;;;-2.22;100.00;93329.69;4951936;28;20446;-50
2023/01/16 08:11:46;;;;;;;2.22;1.10;;;3.10;68.60;;;-2.17;100.00;93316.69;4953034;28;20095;-52
2023/01/16 08:14:13;;;;;;;1.52;0.93;;;3.20;68.70;;;-2.07;100.00;93305.59;4933947;28;20401;-51
2023/01/16 08:16:42;;;;;;;1.23;0.98;;;3.30;68.60;;;-1.99;100.00;93292.94;4951851;28;20032;-50
2023/01/16 08:19:11;;;;;;;2.42;0.95;;;3.40;68.60;;;-1.90;100.00;93295.91;4939040;28;20089;-52
2023/01/16 08:21:37;;;;;;;1.90;0.73;;;3.50;68.60;;;-1.80;100.00;93300.47;4950177;28;20026;-52
2023/01/16 08:24:05;;;;;;;0.85;0.70;;;3.60;68.50;;;-1.74;100.00;93292.44;4931424;28;20076;-49
2023/01/16 08:26:32;;;;;;;1.08;0.73;;;3.60;68.40;;;-1.69;98.86;93297.75;4934739;28;20026;-52
2023/01/16 08:29:01;;;;;;;1.95;0.80;;;3.70;68.30;;;-1.61;97.86;93304.34;4935286;28;20425;-52
2023/01/16 08:31:27;;;;;;;1.23;0.80;;;3.80;68.20;;;-1.52;97.92;93305.47;4938705;28;20111;-52
2023/01/16 08:33:52;;;;;;;1.45;0.82;;;3.90;68.10;;;-1.41;97.99;93294.13;4962939;28;20050;-50
2023/01/16 08:36:20;;;;;;;0.73;0.70;;;4.00;68.10;;;-1.35;97.30;93286.31;4922539;28;20023;-53
2023/01/16 08:38:48;;;;;;;1.20;0.73;;;4.10;67.90;;;-1.27;97.18;93291.09;4947095;28;20557;-55
2023/01/16 08:52:44;;;;;;;2.83;0.88;;;4.40;67.40;;;-0.94;95.24;93271.78;4939180;28;20511;-52
2023/01/16 08:55:11;;;;;;;0.77;0.68;;;4.50;67.40;;;-0.88;94.85;93280.47;4941850;28;20031;-51
2023/01/16 08:57:46;;;;;;;1.20;0.73;;;4.60;67.30;;;-0.82;94.82;93289.94;4930480;28;20486;-50
2023/01/16 09:00:15;;;;;;;3.17;0.70;;;4.70;67.00;;;-0.79;94.95;93289.44;4934022;28;20035;-54
2023/01/16 09:02:45;;;;;;;1.13;0.88;;;4.80;67.00;;;-0.67;95.22;93286.66;4936376;28;20433;-53
2023/01/16 09:05:17;;;;;;;1.48;0.90;;;4.90;66.90;;;-0.64;94.44;93304.44;4950726;28;20145;-52
2023/01/16 09:07:46;;;;;;;2.33;1.00;;;4.90;66.70;;;-0.61;94.30;93288.25;4931385;28;20042;-51
2023/01/16 09:10:18;;;;;;;2.35;1.10;;;5.00;66.70;;;-0.55;94.01;93293.28;4943069;28;20168;-51
2023/01/16 09:15:41;;;;;;;2.17;0.90;;;5.20;66.50;;;-0.49;94.01;93310.56;4949769;28;20073;-55
2023/01/16 09:18:07;;;;;;;5.50;1.00;;;5.20;66.30;;;-0.41;93.97;93314.53;4940287;28;20785;-55
2023/01/16 09:20:39;;;;;;;1.00;0.90;;;5.30;66.20;;;-0.31;93.78;93311.22;4931440;28;20401;-52
2023/01/16 09:23:06;;;;;;;1.70;1.20;;;5.40;66.10;;;-0.25;92.89;93305.78;4932528;28;20050;-53
2023/01/16 09:25:35;;;;;;;0.88;0.80;;;5.50;66.10;;;-0.19;92.00;93300.56;4930147;28;20102;-53
2023/01/16 09:28:01;;;;;;;5.38;0.93;;;5.60;65.90;;;-0.11;91.20;93303.47;4944915;28;20030;-53
2023/01/16 09:30:27;;;;;;;1.15;0.80;;;5.70;65.80;;;-0.03;89.99;93294.38;4949946;28;20050;-53
2023/01/16 09:32:53;;;;;;;1.77;0.73;;;5.80;65.50;;;0.03;89.29;93289.94;4947599;28;20378;-54
2023/01/16 09:35:20;;;;;;;2.00;0.90;;;5.90;65.30;;;0.10;89.31;93301.78;4933768;28;20034;-51
2023/01/16 09:37:46;;;;;;;3.03;0.70;;;6.00;65.20;;;0.17;88.97;93289.22;4949951;28;21425;-53
2023/01/16 09:40:33;;;;;;;1.17;0.80;;;6.10;65.10;;;0.24;88.60;93291.59;4927303;29;20146;-49
2023/01/16 09:45:55;;;;;;;2.58;0.75;;;6.20;64.80;;;0.30;88.16;93308.13;4946148;28;20102;-51
2023/01/16 09:49:22;;;;;;;1.80;0.80;;;6.20;64.60;;;0.30;87.58;93295.81;4950109;28;20018;-53
2023/01/16 10:00:59;;;;;;;0.88;0.60;;;6.10;64.20;;;0.35;85.59;93277.53;4952143;28;20053;-52
2023/01/16 10:03:25;;;;;;;1.95;0.80;;;6.10;64.20;;;0.32;85.63;93285.09;4947670;28;20014;-51
2023/01/16 10:07:20;;;;;;;2.30;0.68;;;6.10;64.10;;;0.38;85.45;93278.84;4925700;28;20551;-52
2023/01/16 10:10:14;;;;;;;;;;;6.10;63.80;;;0.34;84.92;93265.44;4823437;29;20071;-53
2023/01/16 10:12:55;;;;;;;2.33;0.90;;;6.10;64.20;;;0.35;84.78;93240.84;4927018;28;19933;-52
2023/01/16 10:15:44;;;;;;;0.68;0.60;;;6.10;64.00;;;0.36;86.52;93245.03;4930377;28;20023;-54
2023/01/16 10:18:55;;;;;;;1.00;0.70;;;6.10;63.70;;;0.42;87.21;93235.38;4937846;28;20050;-52
2023/01/16 10:22:20;;;;;;;1.85;1.00;;;6.20;63.70;;;0.49;87.65;93228.03;4935774;28;20134;-51
2023/01/16 10:25:13;;;;;;;3.15;0.90;;;6.30;63.60;;;0.56;86.86;93227.78;4935353;29;20056;-54
2023/01/16 10:28:25;;;;;;;1.83;0.88;;;6.50;63.60;;;0.67;85.71;93230.16;4952820;28;20485;-54
2023/01/16 10:31:05;;;;;;;2.40;0.90;;;6.60;63.30;;;0.75;84.74;93212.34;4919077;28;20042;-51
2023/01/16 10:34:00;;;;;;;1.42;0.95;;;6.70;63.10;;;0.87;85.55;93216.28;4940506;28;20033;-52
2023/01/16 10:36:43;;;;;;;0.85;0.70;;;6.90;62.90;;;0.91;84.21;93216.56;4933524;28;20122;-51
2023/01/16 10:39:15;;;;;;;2.97;0.90;;;6.90;62.80;;;0.86;83.65;93219.19;4941164;28;20035;-53
2023/01/16 10:50:39;;;;;;;1.60;1.05;;;7.00;62.40;;;0.89;83.70;93180.13;4946908;28;20113;-50
2023/01/16 10:53:11;;;;;;;4.13;1.15;;;7.00;62.30;;;0.93;83.50;93177.75;4958628;28;20022;-52
2023/01/16 10:55:46;;;;;;;2.28;1.05;;;7.00;62.10;;;1.03;83.34;93161.25;4955563;28;20026;-50
2023/01/16 10:58:35;;;;;;;1.65;1.10;;;7.00;62.10;;;0.96;84.11;93160.72;4948318;28;20054;-51
2023/01/16 11:01:19;;;;;;;1.65;1.30;;;7.00;62.00;;;1.00;83.06;93165.16;4929873;28;20030;-53
2023/01/16 11:04:00;;;;;;;2.35;1.50;;;7.00;61.90;;;0.97;82.76;93173.56;4950465;28;20038;-52
2023/01/16 11:06:30;;;;;;;5.75;2.10;;;6.90;61.80;;;0.99;83.89;93174.09;4927723;28;20050;-51
2023/01/16 11:09:26;;;;;;;2.63;2.05;;;6.90;61.90;;;1.05;84.25;93167.78;4945260;28;20042;-53
2023/01/16 11:20:34;;;;;;;2.38;1.50;;;7.00;61.80;;;1.11;83.17;93131.88;4939003;28;20090;-53
2023/01/16 11:23:22;;;;;;;1.63;1.20;;;7.00;61.80;;;1.11;83.09;93126.63;4952548;28;20069;-56
2023/01/16 11:25:57;;;;;;;1.77;1.20;;;6.90;61.60;;;1.10;83.30;93135.56;4937114;28;20160;-54
2023/01/16 11:28:30;;;;;;;2.28;1.27;;;6.90;61.60;;;1.17;83.79;93132.66;4945592;28;20041;-57
2023/01/16 11:31:30;;;;;;;1.30;0.98;;;6.90;61.50;;;1.07;83.33;93134.25;4930447;28;20145;-57
2023/01/16 11:34:10;;;;;;;3.38;0.90;;;7.00;61.40;;;1.06;82.43;93116.91;4937588;28;20437;-57
2023/01/16 11:36:41;;;;;;;1.90;1.10;;;6.90;61.30;;;1.04;83.35;93132.16;4943968;28;20443;-55
2023/01/16 11:39:23;;;;;;;2.83;1.10;;;6.90;61.30;;;1.05;84.11;93146.03;4945549;28;20132;-56
2023/01/16 11:41:57;;;;;;;1.20;0.90;;;6.90;61.20;;;1.03;80.58;93148.13;4947048;28;20375;-53
2023/01/16 11:47:26;;;;;;;2.13;0.98;;;6.80;60.70;;;1.00;81.42;93106.72;4948112;28;20042;-54
2023/01/16 11:49:55;;;;;;;2.78;1.05;;;6.80;60.90;;;1.01;81.14;93089.94;4948031;28;20409;-57
2023/01/16 11:52:29;;;;;;;2.20;1.10;;;6.80;61.00;;;0.94;81.48;93100.72;4935827;28;20030;-55
2023/01/16 11:55:00;;;;;;;1.38;1.02;;;6.70;60.90;;;0.91;79.99;93088.91;4947505;28;20131;-55
2023/01/16 11:57:59;;;;;;;1.90;1.00;;;6.70;60.90;;;0.89;80.21;93085.75;4946286;28;20882;-58
2023/01/16 12:01:21;;;;;;;1.33;1.00;;;6.70;60.70;;;0.93;80.57;93073.69;4947504;28;20034;-57